Brookfield, Canada
Current Conditions -  °F | °C
As of 7:00 PM on Tuesday 27 Jan 2015 (Local Time) from CYHZ Reporting Station
Light Snow Light Snow  
Wind Chill: 10°   Ceiling: 1400
Heat Index: 25°   Visibility: 2.5mi
Dew Point: 21°   Wind: 22mph
Humidity: 86%   Direction: 30°NNE
Pressure: 29.45"   Gusts: 29mph
Location:  45.25°N, 63.28°W
Report Text: CYHZ 272300Z 03019G25KT 2 1/2SM -FZRA -PLSN OVC014 M04/M06 A2945 RMK NS8 SLP980
Loading
Personal Weather Stations






























Interactive Weather Map New forecast layout! Learn more

10-Day Weather Forecast

Advertisements
Track Severe Weather on mobile